Time;durP1;ratioP1;P1;durP2;ratioP2;P2;SDS_P1;SDS_P2;PMS_P1;PMS_P2;Temp;Humidity;BMP_temperature;BMP_pressure;BME280_temperature;BME280_humidity;BME280_pressure;Samples;Min_cycle;Max_cycle;Signal;HPM_P1;HPM_P2
2022/02/21 00:01:51;;;;;;;14.63;2.63;;;;;;;8.93;60.86;99699.47;4754822;29;20051;-53
2022/02/21 00:04:17;;;;;;;18.98;2.70;;;;;;;8.91;60.30;99721.09;4739836;29;20384;-54
2022/02/21 00:06:43;;;;;;;16.00;2.63;;;;;;;9.02;60.06;99718.53;4756202;29;20043;-55
2022/02/21 00:09:13;;;;;;;16.08;2.90;;;;;;;8.90;59.95;99725.44;4745514;29;20830;-54
2022/02/21 00:11:38;;;;;;;16.05;2.30;;;;;;;8.96;59.81;99720.25;4755398;29;20548;-53
2022/02/21 00:14:04;;;;;;;22.08;2.60;;;;;;;8.82;59.47;99732.38;4756252;29;20055;-52
2022/02/21 00:16:30;;;;;;;16.40;2.40;;;;;;;8.82;59.54;99766.16;4754813;29;20063;-54
2022/02/21 00:18:55;;;;;;;16.10;2.67;;;;;;;8.46;59.38;99764.31;4750680;29;20396;-54
2022/02/21 00:21:20;;;;;;;14.02;2.58;;;;;;;8.77;58.44;99769.63;4758384;29;20055;-55
2022/02/21 00:23:46;;;;;;;21.88;2.55;;;;;;;8.71;58.58;99778.25;4754380;29;20407;-54
2022/02/21 00:26:11;;;;;;;17.17;2.83;;;;;;;8.62;58.42;99756.56;4756619;29;20440;-55
2022/02/21 00:28:37;;;;;;;17.88;2.47;;;;;;;8.68;59.01;99786.03;4743844;29;20059;-55
2022/02/21 00:31:02;;;;;;;16.67;3.50;;;;;;;8.73;59.31;99778.25;4749274;29;20641;-55
2022/02/21 00:33:27;;;;;;;15.80;2.42;;;;;;;8.59;59.54;99779.94;4759698;29;20035;-55
2022/02/21 00:35:53;;;;;;;16.00;2.67;;;;;;;8.76;58.74;99805.13;4754297;29;20047;-56
2022/02/21 00:38:18;;;;;;;16.02;2.80;;;;;;;8.79;59.32;99823.31;4754027;29;20057;-55
2022/02/21 00:40:44;;;;;;;16.50;2.47;;;;;;;8.74;58.95;99808.56;4744962;29;20047;-54
2022/02/21 00:43:09;;;;;;;13.32;2.55;;;;;;;8.77;58.05;99817.25;4741957;29;20135;-54
2022/02/21 00:45:35;;;;;;;12.20;2.22;;;;;;;8.68;57.88;99821.53;4756663;29;20061;-54
2022/02/21 00:48:00;;;;;;;14.35;2.50;;;;;;;8.64;56.87;99831.06;4752786;29;20409;-54
2022/02/21 00:50:26;;;;;;;12.85;2.08;;;;;;;8.78;56.92;99818.13;4759210;29;20046;-52
2022/02/21 00:52:52;;;;;;;13.88;2.35;;;;;;;8.65;56.56;99831.94;4748545;29;20607;-54
2022/02/21 00:55:17;;;;;;;15.63;2.40;;;;;;;8.71;57.11;99824.16;4763974;29;20996;-53
2022/02/21 00:57:43;;;;;;;15.75;2.60;;;;;;;8.81;57.18;99832.00;4749127;29;20146;-53
2022/02/21 01:00:09;;;;;;;16.25;2.33;;;;;;;8.73;57.26;99843.19;4758919;29;20432;-54
2022/02/21 01:02:34;;;;;;;23.27;2.50;;;;;;;8.68;57.51;99842.31;4750167;29;20756;-54
2022/02/21 01:05:00;;;;;;;18.98;2.40;;;;;;;8.74;56.97;99866.59;4747247;29;20602;-56
2022/02/21 01:07:26;;;;;;;18.08;2.40;;;;;;;8.68;56.19;99843.19;4751319;29;20602;-54
2022/02/21 01:09:51;;;;;;;20.17;2.60;;;;;;;8.72;55.59;99863.13;4753020;29;20443;-54
2022/02/21 01:12:16;;;;;;;14.88;2.13;;;;;;;8.61;55.32;99857.00;4744776;29;20451;-56
2022/02/21 01:14:42;;;;;;;17.42;2.20;;;;;;;8.61;55.42;99866.53;4755024;29;20362;-57
2022/02/21 01:17:08;;;;;;;16.25;2.35;;;;;;;8.69;55.17;99862.25;4741458;29;20719;-55
2022/02/21 01:19:33;;;;;;;22.45;2.30;;;;;;;8.67;55.60;99875.22;4754444;29;20122;-53
2022/02/21 01:21:58;;;;;;;18.77;2.65;;;;;;;8.69;56.35;99864.84;4753590;29;20039;-54
2022/02/21 01:24:24;;;;;;;14.88;2.50;;;;;;;8.84;55.68;99881.38;4754580;29;20039;-55
2022/02/21 01:26:49;;;;;;;19.25;2.65;;;;;;;8.80;55.46;99866.63;4748948;29;20040;-54
2022/02/21 01:29:15;;;;;;;12.48;2.35;;;;;;;8.91;56.23;99883.13;4750616;29;20066;-52
2022/02/21 01:31:41;;;;;;;13.52;2.38;;;;;;;8.72;56.51;99873.50;4735697;29;20051;-56
2022/02/21 01:34:06;;;;;;;14.23;2.60;;;;;;;8.70;56.01;99872.66;4752201;29;20937;-53
2022/02/21 01:36:32;;;;;;;16.70;2.60;;;;;;;8.78;56.03;99877.91;4755944;29;20062;-55
2022/02/21 01:38:58;;;;;;;16.20;2.15;;;;;;;8.84;55.50;99898.72;4748788;29;20129;-50
2022/02/21 01:41:23;;;;;;;12.50;2.20;;;;;;;8.80;55.35;99886.53;4758612;29;20059;-51
2022/02/21 01:43:49;;;;;;;17.25;2.20;;;;;;;8.72;54.90;99894.31;4750036;29;20146;-51
2022/02/21 01:46:15;;;;;;;19.17;2.33;;;;;;;8.62;54.81;99891.66;4751993;29;20047;-52
2022/02/21 01:48:40;;;;;;;18.40;2.80;;;;;;;8.80;54.83;99886.53;4753754;29;20538;-55
2022/02/21 01:51:07;;;;;;;17.25;2.58;;;;;;;8.63;54.91;99914.19;4748854;29;20385;-55
2022/02/21 01:53:39;;;;;;;11.20;2.55;;;;;;;8.72;54.34;99906.44;4754184;29;20090;-52
2022/02/21 01:56:05;;;;;;;17.05;2.05;;;;;;;8.79;53.45;99908.19;4752819;29;20051;-56
2022/02/21 01:58:30;;;;;;;17.02;2.50;;;;;;;8.58;53.26;99903.78;4758857;29;20050;-56
2022/02/21 02:00:56;;;;;;;14.82;2.30;;;;;;;8.73;52.53;99893.44;4743956;29;20051;-55
2022/02/21 02:03:22;;;;;;;14.77;2.65;;;;;;;8.78;52.91;99893.50;4754334;29;20810;-52
2022/02/21 02:05:47;;;;;;;12.98;2.08;;;;;;;8.67;51.23;99900.34;4754455;29;20534;-53
2022/02/21 02:08:12;;;;;;;12.27;1.80;;;;;;;8.62;51.99;99899.44;4754478;29;20494;-54
2022/02/21 02:10:38;;;;;;;13.43;2.17;;;;;;;8.64;51.14;99877.81;4753219;29;20417;-55
2022/02/21 02:13:03;;;;;;;9.27;2.03;;;;;;;8.81;51.27;99896.09;4746472;29;20054;-53
2022/02/21 02:15:29;;;;;;;11.45;1.92;;;;;;;8.59;51.22;99891.66;4756112;29;20178;-56
2022/02/21 02:17:54;;;;;;;13.13;2.05;;;;;;;8.78;51.47;99904.72;4752807;29;20116;-55
2022/02/21 02:20:20;;;;;;;17.85;2.45;;;;;;;8.63;51.25;99893.41;4758697;29;20127;-51
2022/02/21 02:22:47;;;;;;;10.20;2.15;;;;;;;8.66;50.99;99904.66;4750511;29;20491;-51
2022/02/21 02:25:12;;;;;;;18.92;2.55;;;;;;;8.63;52.12;99904.66;4747842;29;20090;-52
2022/02/21 02:27:37;;;;;;;13.63;2.20;;;;;;;8.70;50.82;99914.22;4754135;29;20228;-54
2022/02/21 02:30:04;;;;;;;17.20;2.10;;;;;;;8.65;51.40;99915.06;4751895;29;20169;-54
2022/02/21 02:32:30;;;;;;;15.40;2.08;;;;;;;8.71;51.26;99902.97;4761414;29;20408;-55
2022/02/21 02:34:56;;;;;;;14.57;2.60;;;;;;;8.68;51.66;99910.75;4747119;29;20043;-55
2022/02/21 02:37:24;;;;;;;11.13;2.10;;;;;;;8.62;50.78;99910.72;4746484;29;20059;-54
2022/02/21 02:39:50;;;;;;;15.93;2.08;;;;;;;8.67;50.15;99895.13;4752500;29;20048;-52
2022/02/21 02:42:16;;;;;;;17.83;2.10;;;;;;;8.52;50.20;99902.00;4752976;29;20058;-52
2022/02/21 02:44:41;;;;;;;13.45;2.28;;;;;;;8.67;51.26;99910.72;4756217;29;20055;-53
2022/02/21 02:47:09;;;;;;;14.18;2.67;;;;;;;8.76;51.05;99928.97;4748242;29;20810;-51
2022/02/21 02:49:35;;;;;;;16.98;2.80;;;;;;;8.58;51.99;99916.75;4755011;29;20089;-53
2022/02/21 02:52:01;;;;;;;15.52;2.42;;;;;;;8.60;52.33;99925.41;4755684;29;20996;-53
2022/02/21 02:54:27;;;;;;;14.07;2.35;;;;;;;8.42;52.29;99909.72;4746146;29;20511;-52
2022/02/21 02:56:52;;;;;;;15.00;2.78;;;;;;;8.59;51.88;99917.63;4748356;29;20058;-59
2022/02/21 02:59:18;;;;;;;19.02;2.80;;;;;;;8.68;52.21;99925.47;4757068;29;20059;-52
2022/02/21 03:01:43;;;;;;;17.35;2.75;;;;;;;8.64;51.69;99945.38;4750836;29;20054;-52
2022/02/21 03:04:09;;;;;;;21.75;2.42;;;;;;;8.61;51.37;99942.75;4749004;29;20048;-55
2022/02/21 03:06:35;;;;;;;15.30;2.30;;;;;;;8.43;51.30;99920.13;4747649;29;21419;-51
2022/02/21 03:09:01;;;;;;;15.73;2.72;;;;;;;8.43;51.29;99924.44;4744213;29;20412;-54
2022/02/21 03:11:26;;;;;;;18.00;3.25;;;;;;;8.40;51.27;99925.31;4749957;29;20401;-57
2022/02/21 03:13:52;;;;;;;16.85;2.53;;;;;;;8.42;51.10;99939.16;4754213;29;20051;-55
2022/02/21 03:16:17;;;;;;;15.77;2.55;;;;;;;8.35;50.68;99932.19;4755216;29;20082;-54
2022/02/21 03:18:43;;;;;;;17.20;2.70;;;;;;;8.36;51.49;99920.94;4757088;29;20508;-51
2022/02/21 03:21:09;;;;;;;15.80;2.53;;;;;;;8.41;50.87;99924.44;4745200;29;20217;-55
2022/02/21 03:23:34;;;;;;;18.80;2.90;;;;;;;8.41;51.12;99931.38;4751307;29;20082;-54
2022/02/21 03:26:00;;;;;;;14.70;2.78;;;;;;;8.47;51.26;99941.81;4757376;29;20519;-55
2022/02/21 03:28:25;;;;;;;16.17;2.65;;;;;;;8.21;51.17;99933.78;4758572;29;20410;-53
2022/02/21 03:30:53;;;;;;;18.20;2.25;;;;;;;8.09;50.85;99933.69;4751074;29;20146;-54
2022/02/21 03:33:18;;;;;;;16.60;2.47;;;;;;;8.24;50.07;99931.19;4750966;29;20043;-53
2022/02/21 03:35:43;;;;;;;11.63;2.42;;;;;;;8.44;50.14;99941.75;4755292;29;21230;-51
2022/02/21 03:38:09;;;;;;;14.73;2.33;;;;;;;8.55;49.65;99930.59;4749885;29;20042;-52
2022/02/21 03:40:35;;;;;;;15.25;2.50;;;;;;;8.46;49.98;99927.94;4760252;29;20052;-55
2022/02/21 03:43:00;;;;;;;16.98;2.13;;;;;;;8.45;49.56;99923.59;4748968;29;20719;-56
2022/02/21 03:45:25;;;;;;;19.23;2.30;;;;;;;8.44;50.19;99946.97;4754976;29;20047;-52
2022/02/21 03:47:55;;;;;;;17.38;2.20;;;;;;;8.21;50.62;99922.53;4755490;29;20047;-54
2022/02/21 03:50:21;;;;;;;13.40;2.03;;;;;;;8.19;50.53;99919.03;4753849;29;20051;-53
2022/02/21 03:52:47;;;;;;;15.43;2.22;;;;;;;8.24;50.92;99928.59;4756653;29;20047;-57
2022/02/21 03:55:13;;;;;;;14.85;2.17;;;;;;;8.52;50.12;99927.97;4755077;29;20627;-54
2022/02/21 03:57:39;;;;;;;12.38;2.20;;;;;;;8.45;50.84;99910.63;4757712;29;20051;-53
2022/02/21 04:00:07;;;;;;;17.20;2.33;;;;;;;8.31;51.04;99919.16;4754171;29;20495;-54
2022/02/21 04:02:32;;;;;;;15.25;2.15;;;;;;;8.34;51.52;99914.88;4753695;29;20067;-52
2022/02/21 04:05:00;;;;;;;16.42;2.45;;;;;;;8.17;52.23;99906.06;4751911;29;20102;-53
2022/02/21 04:07:29;;;;;;;20.33;2.78;;;;;;;8.13;52.12;99923.31;4749634;29;20565;-55
2022/02/21 04:09:54;;;;;;;15.55;2.70;;;;;;;8.10;52.31;99914.66;4757632;29;20373;-55
2022/02/21 04:12:20;;;;;;;16.08;2.10;;;;;;;8.09;52.13;99915.50;4756357;29;20287;-50
2022/02/21 04:14:45;;;;;;;15.32;2.10;;;;;;;8.13;51.61;99925.06;4773243;29;20411;-51
2022/02/21 04:17:10;;;;;;;15.85;2.45;;;;;;;8.07;52.39;99925.88;4745646;29;20659;-54
2022/02/21 04:19:36;;;;;;;19.50;2.53;;;;;;;8.12;52.53;99924.19;4756067;29;20089;-52
2022/02/21 04:22:01;;;;;;;16.77;2.60;;;;;;;8.08;52.86;99908.56;4758304;29;20147;-53
2022/02/21 04:24:27;;;;;;;15.95;2.38;;;;;;;8.07;51.72;99925.88;4757325;29;20400;-51
2022/02/21 04:26:52;;;;;;;14.10;2.10;;;;;;;7.96;52.20;99940.50;4749221;29;20070;-59
2022/02/21 04:29:18;;;;;;;17.92;2.10;;;;;;;8.08;51.98;99938.00;4741894;29;20647;-53
2022/02/21 04:31:43;;;;;;;18.15;2.42;;;;;;;8.13;52.13;99930.25;4756221;29;20055;-52
2022/02/21 04:34:08;;;;;;;13.40;2.03;;;;;;;8.26;52.27;99932.09;4749821;29;20434;-51
2022/02/21 04:36:38;;;;;;;16.17;2.78;;;;;;;8.14;53.19;99948.44;4749946;29;20055;-53
2022/02/21 04:39:04;;;;;;;16.52;2.47;;;;;;;8.16;52.45;99927.69;4751501;29;20051;-51
2022/02/21 04:41:30;;;;;;;13.77;2.67;;;;;;;8.29;52.99;99929.53;4757290;29;20362;-53
2022/02/21 04:43:55;;;;;;;18.05;2.55;;;;;;;8.35;53.00;99926.13;4748116;29;20903;-50
2022/02/21 04:46:21;;;;;;;20.45;2.30;;;;;;;8.23;53.33;99918.22;4755179;29;20369;-54
2022/02/21 04:48:47;;;;;;;15.20;2.30;;;;;;;8.13;54.06;99925.91;4755128;29;20055;-52
2022/02/21 04:51:12;;;;;;;16.90;2.92;;;;;;;8.16;53.81;99906.91;4749828;29;20216;-54
2022/02/21 04:53:37;;;;;;;15.07;2.15;;;;;;;8.14;52.92;99908.63;4754329;29;20482;-53
2022/02/21 04:56:03;;;;;;;17.08;2.30;;;;;;;8.01;54.01;99901.59;4756140;29;20661;-54
2022/02/21 04:58:29;;;;;;;18.10;2.60;;;;;;;7.96;54.55;99911.94;4757391;29;21217;-54
2022/02/21 05:00:54;;;;;;;14.00;2.53;;;;;;;7.90;54.02;99917.06;4748187;29;20497;-59
2022/02/21 05:03:19;;;;;;;14.55;2.17;;;;;;;8.08;53.36;99911.16;4753345;29;20522;-54
2022/02/21 05:05:45;;;;;;;13.60;2.17;;;;;;;7.91;53.38;99899.78;4756253;29;20680;-54
2022/02/21 05:08:10;;;;;;;25.67;2.40;;;;;;;7.90;53.34;99896.31;4751736;29;20404;-53
2022/02/21 05:10:36;;;;;;;15.45;2.30;;;;;;;7.80;53.05;99865.97;4753332;29;20177;-53
2022/02/21 05:13:01;;;;;;;19.70;2.60;;;;;;;7.96;52.83;99890.31;4747881;29;20043;-53
2022/02/21 05:15:26;;;;;;;16.65;2.72;;;;;;;7.88;53.29;99884.16;4754086;29;20082;-51
2022/02/21 05:17:52;;;;;;;16.95;2.83;;;;;;;7.84;53.32;99872.91;4754819;29;20032;-53
2022/02/21 05:20:17;;;;;;;14.07;2.15;;;;;;;7.66;53.34;99854.59;4757347;29;20170;-55
2022/02/21 05:22:42;;;;;;;20.20;2.58;;;;;;;7.75;53.06;99883.19;4749490;29;20081;-53
2022/02/21 05:25:08;;;;;;;15.45;2.50;;;;;;;7.74;53.58;99884.91;4749725;29;20058;-53
2022/02/21 05:27:39;;;;;;;18.60;2.88;;;;;;;7.72;53.21;99894.44;4752039;29;20081;-55
2022/02/21 05:30:05;;;;;;;14.35;2.13;;;;;;;7.68;52.99;99868.47;4739281;29;20047;-54
2022/02/21 05:32:31;;;;;;;14.90;2.60;;;;;;;7.79;52.75;99873.72;4767933;29;20865;-51
2022/02/21 05:34:57;;;;;;;18.20;2.50;;;;;;;7.87;52.75;99866.91;4749251;29;20040;-55
2022/02/21 05:37:22;;;;;;;17.15;2.83;;;;;;;7.75;52.80;99867.63;4754753;29;20056;-55
2022/02/21 05:39:47;;;;;;;17.13;2.38;;;;;;;7.77;52.70;99860.75;4754662;29;20054;-52
2022/02/21 05:42:14;;;;;;;17.30;2.33;;;;;;;7.80;52.65;99853.00;4757128;29;20668;-55
2022/02/21 05:44:39;;;;;;;14.38;2.15;;;;;;;7.88;52.78;99856.50;4756761;29;20055;-53
2022/02/21 05:47:05;;;;;;;15.95;2.47;;;;;;;7.82;53.38;99859.03;4741669;29;20086;-54
2022/02/21 05:49:32;;;;;;;20.50;2.40;;;;;;;7.77;53.33;99871.13;4753293;29;20071;-54
2022/02/21 05:51:57;;;;;;;18.00;2.95;;;;;;;7.77;53.51;99839.13;4756551;29;20047;-54
2022/02/21 05:54:23;;;;;;;14.90;2.30;;;;;;;7.78;53.55;99851.22;4743658;29;20039;-50
2022/02/21 05:56:49;;;;;;;19.77;2.72;;;;;;;7.74;53.39;99834.78;4748694;29;20055;-54
2022/02/21 05:59:15;;;;;;;15.38;2.10;;;;;;;7.86;53.22;99832.28;4751529;29;20134;-56
2022/02/21 06:01:41;;;;;;;15.18;2.50;;;;;;;7.84;53.63;99844.38;4750510;29;20349;-53
2022/02/21 06:04:08;;;;;;;13.93;2.45;;;;;;;7.83;53.89;99847.81;4759208;29;20197;-52
2022/02/21 06:06:34;;;;;;;21.25;2.63;;;;;;;7.71;54.08;99846.00;4753668;29;20039;-55
2022/02/21 06:09:00;;;;;;;18.13;2.33;;;;;;;7.66;54.55;99841.63;4748210;29;20039;-54
2022/02/21 06:11:25;;;;;;;18.30;2.20;;;;;;;7.70;54.20;99844.25;4756559;29;20042;-52
2022/02/21 06:13:51;;;;;;;18.33;2.40;;;;;;;7.82;54.10;99840.00;4753844;29;20535;-55
2022/02/21 06:16:16;;;;;;;15.02;2.58;;;;;;;7.72;54.74;99837.38;4754283;29;20039;-57
2022/02/21 06:18:41;;;;;;;18.27;2.50;;;;;;;7.58;54.67;99828.59;4747304;29;20128;-53
2022/02/21 06:21:06;;;;;;;17.33;2.78;;;;;;;7.68;54.50;99850.31;4751106;29;20478;-54
2022/02/21 06:23:32;;;;;;;19.63;2.80;;;;;;;7.69;54.21;99845.09;4753475;29;20047;-55
2022/02/21 06:25:57;;;;;;;18.55;2.47;;;;;;;7.73;54.22;99831.31;4754122;29;20059;-54
2022/02/21 06:28:24;;;;;;;19.08;2.55;;;;;;;7.53;54.18;99832.00;4752593;29;20062;-54
2022/02/21 06:30:51;;;;;;;14.88;2.60;;;;;;;7.70;54.27;99817.44;4748169;29;20490;-54
2022/02/21 06:33:17;;;;;;;16.50;2.40;;;;;;;7.74;54.32;99827.84;4762812;29;20054;-55
2022/02/21 06:35:43;;;;;;;13.80;2.17;;;;;;;7.69;54.72;99837.31;4751810;29;20053;-55
2022/02/21 06:38:09;;;;;;;17.02;2.85;;;;;;;7.64;54.41;99822.56;4757151;29;20051;-54
2022/02/21 06:40:34;;;;;;;19.80;2.63;;;;;;;7.84;54.23;99823.59;4755071;29;20099;-55
2022/02/21 06:43:01;;;;;;;15.80;2.30;;;;;;;7.94;53.70;99827.13;4747668;29;20051;-51
2022/02/21 06:45:27;;;;;;;19.10;2.60;;;;;;;7.88;54.67;99829.69;4752096;29;20162;-54
2022/02/21 06:47:53;;;;;;;17.67;2.65;;;;;;;7.80;54.49;99808.00;4752838;29;20051;-53
2022/02/21 06:50:19;;;;;;;18.20;2.72;;;;;;;7.93;54.42;99820.22;4756537;29;20128;-55
2022/02/21 06:52:44;;;;;;;20.58;2.60;;;;;;;7.94;54.53;99803.78;4751245;29;20064;-54
2022/02/21 06:55:12;;;;;;;25.27;2.65;;;;;;;7.96;54.66;99810.72;4749027;29;20681;-54
2022/02/21 06:57:46;;;;;;;21.95;3.00;;;;;;;7.98;54.19;99816.81;4752089;29;20047;-53
2022/02/21 07:00:13;;;;;;;15.52;2.50;;;;;;;8.16;53.98;99808.25;4751436;29;20047;-54
2022/02/21 07:02:38;;;;;;;17.65;2.42;;;;;;;8.29;53.33;99807.47;4754784;29;20027;-56
2022/02/21 07:05:05;;;;;;;15.18;2.50;;;;;;;8.11;53.45;99791.78;4746372;29;20452;-56
2022/02/21 07:07:31;;;;;;;17.50;2.70;;;;;;;8.26;53.49;99807.44;4752889;29;20540;-56
2022/02/21 07:09:56;;;;;;;18.90;2.47;;;;;;;8.51;53.18;99811.06;4766455;29;20287;-55
2022/02/21 07:12:22;;;;;;;16.33;2.30;;;;;;;8.29;53.27;99791.91;4751163;29;20064;-54
2022/02/21 07:14:48;;;;;;;20.88;2.72;;;;;;;8.50;52.43;99780.75;4755227;29;20066;-54
2022/02/21 07:17:13;;;;;;;27.00;2.90;;;;;;;8.51;52.47;99780.78;4747926;29;21583;-54
2022/02/21 07:19:39;;;;;;;16.70;2.55;;;;;;;8.53;52.35;99778.19;4750360;29;20044;-56
2022/02/21 07:22:04;;;;;;;14.65;1.95;;;;;;;8.72;52.42;99779.97;4748195;29;20066;-52
2022/02/21 07:24:31;;;;;;;16.40;2.70;;;;;;;8.99;51.47;99779.19;4749570;29;20539;-54
2022/02/21 07:26:57;;;;;;;17.63;2.20;;;;;;;9.04;51.37;99755.78;4733100;29;21253;-54
2022/02/21 07:29:23;;;;;;;12.02;2.10;;;;;;;9.20;51.01;99773.16;4755975;29;20566;-54
2022/02/21 07:31:49;;;;;;;12.18;2.17;;;;;;;9.18;50.83;99765.38;4738047;29;20054;-55
2022/02/21 07:34:14;;;;;;;17.55;2.45;;;;;;;9.22;51.63;99777.50;4753311;29;20050;-55
2022/02/21 07:36:40;;;;;;;15.98;2.45;;;;;;;9.29;51.21;99768.84;4740197;29;20453;-52
2022/02/21 07:39:05;;;;;;;17.67;2.70;;;;;;;9.15;51.48;99743.69;4744634;29;20059;-54
2022/02/21 07:41:31;;;;;;;16.42;2.25;;;;;;;9.00;52.04;99767.06;4753629;29;20154;-55
2022/02/21 07:43:56;;;;;;;16.08;2.70;;;;;;;9.11;51.91;99737.63;4756177;29;20047;-51
2022/02/21 07:46:21;;;;;;;18.75;2.55;;;;;;;9.05;52.29;99770.53;4751611;29;20460;-51
2022/02/21 07:48:47;;;;;;;18.45;2.88;;;;;;;9.01;54.41;99755.81;4750078;29;20370;-53
2022/02/21 07:51:13;;;;;;;15.77;2.72;;;;;;;8.83;55.46;99741.91;4746841;29;20059;-55
2022/02/21 07:53:38;;;;;;;23.50;3.97;;;;;;;8.89;56.12;99741.94;4749533;29;20458;-51
2022/02/21 07:56:04;;;;;;;22.35;2.53;;;;;;;8.84;56.55;99742.78;4750350;29;20148;-54
2022/02/21 07:58:29;;;;;;;19.70;3.03;;;;;;;8.69;57.18;99724.53;4728728;29;20432;-52
2022/02/21 08:00:55;;;;;;;24.60;2.92;;;;;;;8.58;58.63;99728.84;4747683;29;20089;-53
2022/02/21 08:03:20;;;;;;;25.90;3.10;;;;;;;8.62;58.74;99712.38;4748662;29;20094;-56
2022/02/21 08:05:46;;;;;;;20.10;2.85;;;;;;;8.38;59.54;99714.06;4751278;29;20154;-52
2022/02/21 08:08:12;;;;;;;25.35;2.90;;;;;;;8.45;59.74;99710.63;4752286;29;20079;-53
2022/02/21 08:10:37;;;;;;;22.50;3.10;;;;;;;8.19;61.25;99713.94;4764516;29;20051;-52
2022/02/21 08:13:03;;;;;;;25.23;2.85;;;;;;;8.36;61.80;99694.13;4746054;29;20051;-54
2022/02/21 08:15:29;;;;;;;23.77;2.95;;;;;;;8.37;62.74;99704.53;4756674;29;20377;-56
2022/02/21 08:17:55;;;;;;;19.35;2.92;;;;;;;8.12;63.46;99698.34;4751869;29;20054;-53
2022/02/21 08:20:22;;;;;;;18.65;2.83;;;;;;;8.20;63.31;99694.91;4753045;29;20058;-51
2022/02/21 08:22:49;;;;;;;21.25;3.38;;;;;;;8.11;64.08;99685.38;4753482;29;20269;-51
2022/02/21 08:25:15;;;;;;;32.25;3.50;;;;;;;8.14;64.38;99687.97;4750587;29;20945;-54
2022/02/21 08:27:42;;;;;;;25.02;3.08;;;;;;;8.02;65.13;99680.13;4748318;29;20412;-53
2022/02/21 08:30:13;;;;;;;28.40;4.03;;;;;;;7.88;64.64;99653.22;4755887;29;21042;-53
2022/02/21 08:32:39;;;;;;;26.90;2.97;;;;;;;8.05;64.31;99654.19;4750696;29;20667;-54
2022/02/21 08:35:05;;;;;;;26.90;3.70;;;;;;;8.01;64.74;99655.91;4742535;29;20169;-54
2022/02/21 08:37:31;;;;;;;26.55;3.17;;;;;;;8.04;65.33;99662.84;4749871;29;20538;-52
2022/02/21 08:39:56;;;;;;;23.52;3.03;;;;;;;8.14;64.62;99662.00;4751367;29;20142;-53
2022/02/21 08:42:22;;;;;;;19.67;3.50;;;;;;;8.12;63.73;99656.78;4755409;29;20043;-55
2022/02/21 08:44:47;;;;;;;22.58;3.22;;;;;;;8.22;63.99;99643.88;4749721;29;20083;-52
2022/02/21 08:47:15;;;;;;;27.83;3.72;;;;;;;8.22;64.04;99642.13;4743489;29;20055;-54
2022/02/21 08:49:40;;;;;;;28.50;3.42;;;;;;;8.30;64.05;99632.66;4754932;29;20469;-55
2022/02/21 08:52:06;;;;;;;27.58;3.53;;;;;;;8.31;62.93;99637.00;4752764;29;20432;-50
2022/02/21 08:54:35;;;;;;;30.45;3.50;;;;;;;8.29;62.64;99648.22;4745602;29;20044;-55
2022/02/21 08:57:01;;;;;;;28.98;3.50;;;;;;;8.43;62.06;99628.34;4742972;29;20063;-54
2022/02/21 08:59:26;;;;;;;24.65;3.30;;;;;;;8.63;62.28;99626.66;4755095;29;20086;-52
2022/02/21 09:01:52;;;;;;;25.33;3.30;;;;;;;8.59;61.51;99617.16;4740281;29;20500;-54
2022/02/21 09:04:17;;;;;;;20.85;3.20;;;;;;;8.67;61.52;99627.53;4753185;29;20049;-50
2022/02/21 09:06:43;;;;;;;29.17;3.53;;;;;;;8.87;61.28;99610.22;4767235;29;20480;-54
2022/02/21 09:09:08;;;;;;;31.33;3.63;;;;;;;8.87;61.20;99618.03;4733473;29;20158;-53
2022/02/21 09:11:33;;;;;;;30.58;3.95;;;;;;;8.80;61.91;99605.88;4741848;29;21825;-52
2022/02/21 09:13:59;;;;;;;23.23;3.50;;;;;;;8.93;61.31;99620.63;4758642;29;20100;-53
2022/02/21 09:16:24;;;;;;;24.25;3.33;;;;;;;8.86;61.74;99611.94;4753423;29;20115;-53
2022/02/21 09:18:50;;;;;;;31.33;3.80;;;;;;;8.75;62.52;99612.81;4750730;29;20454;-53
2022/02/21 09:21:15;;;;;;;28.13;4.00;;;;;;;8.82;62.36;99622.34;4752484;29;20594;-52
2022/02/21 09:23:41;;;;;;;28.13;3.50;;;;;;;8.64;62.92;99605.03;4741788;29;20388;-53
2022/02/21 09:26:06;;;;;;;28.83;4.00;;;;;;;8.60;64.22;99616.25;4754535;29;20047;-49
2022/02/21 09:28:31;;;;;;;25.60;3.50;;;;;;;8.53;64.45;99612.81;4756706;29;20055;-53
2022/02/21 09:30:57;;;;;;;33.80;4.07;;;;;;;8.39;66.05;99611.91;4744470;29;20058;-50
2022/02/21 09:33:23;;;;;;;27.02;3.65;;;;;;;8.44;66.37;99606.72;4757827;29;20051;-53
2022/02/21 09:35:50;;;;;;;31.63;3.67;;;;;;;8.45;65.88;99611.06;4753307;29;20055;-52
2022/02/21 09:38:16;;;;;;;29.75;3.67;;;;;;;8.27;66.42;99601.47;4755274;29;20215;-53
2022/02/21 09:40:44;;;;;;;28.42;3.88;;;;;;;8.43;66.25;99612.78;4752002;29;20166;-53
2022/02/21 09:43:12;;;;;;;27.85;4.03;;;;;;;8.39;66.29;99591.13;4748098;29;20092;-53
2022/02/21 09:45:43;;;;;;;23.88;3.42;;;;;;;8.47;65.60;99586.84;4746774;29;20460;-52
2022/02/21 09:48:12;;;;;;;26.67;3.95;;;;;;;8.48;65.26;99577.28;4748707;29;20057;-50
2022/02/21 09:50:39;;;;;;;25.17;3.67;;;;;;;8.58;64.96;99596.34;4748141;29;20054;-54
2022/02/21 09:53:06;;;;;;;26.02;4.50;;;;;;;8.69;64.52;99600.69;4748112;29;20031;-51
2022/02/21 09:55:32;;;;;;;24.77;3.67;;;;;;;8.62;64.32;99587.69;4752162;29;20046;-52
2022/02/21 09:57:58;;;;;;;27.58;4.05;;;;;;;8.90;63.20;99581.66;4736010;29;20713;-49
2022/02/21 10:00:24;;;;;;;27.88;4.18;;;;;;;9.06;62.43;99569.50;4745118;29;20173;-53
2022/02/21 10:02:51;;;;;;;27.05;4.22;;;;;;;9.11;62.98;99579.00;4731632;29;20469;-51
2022/02/21 10:05:18;;;;;;;34.80;4.45;;;;;;;9.23;62.74;99579.00;4744079;29;20397;-50
2022/02/21 10:07:44;;;;;;;25.15;4.00;;;;;;;9.17;62.83;99570.34;4750629;29;20043;-50
2022/02/21 10:10:12;;;;;;;31.35;4.30;;;;;;;9.27;63.79;99579.88;4750339;29;20054;-51
2022/02/21 10:12:58;;;;;;;36.08;4.50;;;;;;;9.40;63.55;99573.75;4752792;29;20340;-51
2022/02/21 10:15:23;;;;;;;29.13;3.88;;;;;;;9.39;64.02;99568.56;4749363;29;20622;-51
2022/02/21 10:17:50;;;;;;;31.80;4.43;;;;;;;9.30;64.61;99577.25;4738101;29;20086;-52
2022/02/21 10:20:17;;;;;;;36.83;4.18;;;;;;;9.10;65.42;99573.81;4755185;29;20082;-52
2022/02/21 10:23:04;;;;;;;27.77;4.45;;;;;;;9.10;65.93;99573.81;4734966;29;20129;-51
2022/02/21 10:25:29;;;;;;;34.30;4.57;;;;;;;8.95;66.06;99531.38;4753621;29;20871;-52
2022/02/21 10:27:59;;;;;;;35.55;3.85;;;;;;;9.22;65.69;99586.78;4746609;29;20134;-55
2022/02/21 10:30:24;;;;;;;25.58;3.80;;;;;;;9.19;65.90;99585.06;4749540;29;20048;-51
2022/02/21 10:32:51;;;;;;;30.25;3.75;;;;;;;9.11;65.65;99596.34;4744010;29;20388;-54
2022/02/21 10:35:17;;;;;;;29.42;3.95;;;;;;;9.20;66.00;99596.34;4746383;29;20074;-54
2022/02/21 10:37:57;;;;;;;33.70;4.13;;;;;;;9.09;66.43;99585.94;4754040;29;20057;-52
2022/02/21 10:40:27;;;;;;;29.02;3.85;;;;;;;9.41;65.72;99600.63;4753257;29;21407;-54
2022/02/21 10:43:14;;;;;;;33.70;3.80;;;;;;;9.35;66.04;99606.72;4745578;29;20522;-56
2022/02/21 10:45:41;;;;;;;42.78;5.10;;;;;;;9.39;66.11;99608.44;4751864;29;20166;-54
2022/02/21 10:48:09;;;;;;;37.20;4.25;;;;;;;9.28;66.91;99607.59;4753341;29;20277;-53
2022/02/21 10:51:10;;;;;;;26.23;3.70;;;;;;;9.51;67.39;99611.03;4753124;29;20031;-53
2022/02/21 10:53:41;;;;;;;29.95;4.18;;;;;;;9.50;67.05;99622.31;4711263;30;20155;-53
2022/02/21 10:56:08;;;;;;;30.55;3.95;;;;;;;9.55;67.59;99622.28;4735857;29;20101;-54
2022/02/21 10:58:33;;;;;;;32.33;4.15;;;;;;;9.64;66.69;99628.31;4743366;29;20051;-50
2022/02/21 11:01:00;;;;;;;26.42;3.42;;;;;;;9.75;66.33;99618.75;4739481;29;20748;-53
2022/02/21 11:03:27;;;;;;;26.45;4.15;;;;;;;9.98;65.55;99626.47;4768736;29;20471;-52
2022/02/21 11:05:55;;;;;;;29.73;3.92;;;;;;;9.84;65.52;99623.03;4748287;29;20086;-53
2022/02/21 11:08:21;;;;;;;24.70;3.67;;;;;;;10.11;65.04;99609.94;4742284;29;20740;-52
2022/02/21 11:10:54;;;;;;;33.78;4.15;;;;;;;10.00;65.08;99614.28;4748811;29;20054;-50
2022/02/21 11:13:20;;;;;;;27.70;3.47;;;;;;;10.26;64.79;99622.03;4760689;29;20051;-55
2022/02/21 11:15:47;;;;;;;27.90;4.07;;;;;;;10.21;65.42;99612.50;4757091;29;20442;-51
2022/02/21 11:18:14;;;;;;;32.63;4.63;;;;;;;10.15;66.29;99626.38;4749534;29;20044;-53
2022/02/21 11:20:39;;;;;;;24.25;3.80;;;;;;;10.11;66.02;99624.69;4746939;29;20051;-53
2022/02/21 11:23:06;;;;;;;25.30;3.75;;;;;;;10.14;66.24;99646.34;4738079;29;20503;-53
2022/02/21 11:25:41;;;;;;;22.60;3.72;;;;;;;10.16;66.00;99639.44;4751478;29;20047;-55
2022/02/21 11:28:24;;;;;;;23.60;3.83;;;;;;;10.41;65.30;99645.41;4756666;29;20078;-52
2022/02/21 11:30:55;;;;;;;25.58;4.45;;;;;;;10.47;65.17;99639.28;4738566;29;20082;-50